Time;durP1;ratioP1;P1;durP2;ratioP2;P2;SDS_P1;SDS_P2;PMS_P1;PMS_P2;Temp;Humidity;BMP_temperature;BMP_pressure;BME280_temperature;BME280_humidity;BME280_pressure;Samples;Min_cycle;Max_cycle;Signal;HPM_P1;HPM_P2
2021/12/21 00:00:16;;;;;;;16.02;8.43;;;;;;;4.54;59.12;102431.44;4929216;28;122950;-83
2021/12/21 00:02:44;;;;;;;14.88;8.48;;;;;;;4.36;58.59;102402.41;4945323;28;119798;-82
2021/12/21 00:05:16;;;;;;;12.70;7.57;;;;;;;4.46;57.65;102423.50;4944642;28;119710;-84
2021/12/21 00:07:42;;;;;;;14.63;8.07;;;;;;;4.40;57.71;102430.41;4944240;28;120235;-84
2021/12/21 00:10:09;;;;;;;14.82;8.20;;;;;;;4.27;57.08;102418.97;4932226;28;119673;-85
2021/12/21 00:12:36;;;;;;;17.55;8.55;;;;;;;4.27;57.42;102424.41;4937297;28;122973;-84
2021/12/21 00:15:04;;;;;;;13.93;7.70;;;;;;;4.12;57.40;102412.53;4938079;28;119429;-89
2021/12/21 00:17:49;;;;;;;16.73;8.40;;;;;;;3.97;57.36;102403.34;4941606;28;122614;-88
2021/12/21 00:25:15;;;;;;;17.92;8.50;;;;;;;3.98;57.79;102415.78;4940495;28;122106;-88
2021/12/21 00:27:40;;;;;;;15.05;8.32;;;;;;;3.90;57.38;102402.44;4909250;28;123390;-84
2021/12/21 00:30:10;;;;;;;16.98;8.75;;;;;;;4.01;57.64;102419.69;4909870;28;120043;-88
2021/12/21 00:32:35;;;;;;;19.27;8.95;;;;;;;3.99;57.65;102422.78;4945160;28;122310;-85
2021/12/21 00:35:01;;;;;;;16.75;9.43;;;;;;;3.89;58.27;102406.31;4943549;28;119896;-89
2021/12/21 00:37:28;;;;;;;13.68;8.88;;;;;;;3.76;58.30;102389.41;4940758;28;121638;-86
2021/12/21 00:39:54;;;;;;;16.63;8.55;;;;;;;3.87;57.36;102408.63;4941709;28;120318;-85
2021/12/21 00:42:19;;;;;;;15.55;8.60;;;;;;;3.69;57.16;102383.88;4945816;28;120852;-85
2021/12/21 00:44:46;;;;;;;16.35;8.88;;;;;;;3.82;57.81;102407.00;4944436;28;121489;-87
2021/12/21 00:47:14;;;;;;;14.73;8.98;;;;;;;3.75;57.83;102400.63;4944058;28;121369;-85
2021/12/21 00:49:45;;;;;;;15.95;9.23;;;;;;;3.80;58.01;102417.44;4927419;28;120567;-86
2021/12/21 00:52:11;;;;;;;15.10;9.45;;;;;;;3.70;58.66;102391.66;4942232;28;123428;-86
2021/12/21 00:54:36;;;;;;;17.33;9.10;;;;;;;3.83;59.33;102399.63;4948440;28;121128;-87
2021/12/21 00:57:08;;;;;;;16.48;9.10;;;;;;;3.99;59.03;102411.91;4949571;28;120363;-87
2021/12/21 00:59:34;;;;;;;17.00;9.40;;;;;;;3.89;58.76;102390.81;4925486;28;120326;-89
2021/12/21 01:02:00;;;;;;;21.17;9.48;;;;;;;3.91;58.26;102402.09;4944178;28;120053;-86
2021/12/21 01:04:33;;;;;;;21.00;9.35;;;;;;;3.87;58.65;102395.03;4944009;28;120667;-87
2021/12/21 01:12:11;;;;;;;18.42;9.38;;;;;;;3.84;57.80;102390.34;4958988;28;122042;-83
2021/12/21 01:20:02;;;;;;;16.42;9.00;;;;;;;3.78;57.71;102391.75;4950594;28;122457;-89
2021/12/21 01:35:49;;;;;;;15.60;8.65;;;;;;;3.61;57.66;102380.25;4948186;28;120278;-89
2021/12/21 01:40:54;;;;;;;15.88;8.88;;;;;;;3.55;57.80;102373.56;4945643;28;120251;-90
2021/12/21 01:43:34;;;;;;;14.85;8.77;;;;;;;3.45;57.16;102366.00;4949549;28;119677;-87
2021/12/21 01:51:29;;;;;;;13.13;7.83;;;;;;;3.29;56.87;102357.16;4969196;28;121393;-87
2021/12/21 01:53:55;;;;;;;13.55;8.25;;;;;;;3.29;57.21;102359.88;4948417;28;121856;-89
2021/12/21 01:56:21;;;;;;;14.48;8.50;;;;;;;3.44;56.55;102385.34;4965589;28;120223;-85
2021/12/21 01:58:46;;;;;;;17.15;9.05;;;;;;;3.30;56.87;102364.94;4933494;28;119638;-89
2021/12/21 02:01:15;;;;;;;16.45;8.82;;;;;;;3.37;56.73;102381.38;4935052;28;122545;-89
2021/12/21 02:03:47;;;;;;;14.55;8.48;;;;;;;3.22;56.88;102365.97;4948298;28;120598;-89
2021/12/21 02:06:14;;;;;;;17.60;9.18;;;;;;;3.32;57.06;102372.75;4916656;28;122093;-87
2021/12/21 02:08:40;;;;;;;13.73;8.95;;;;;;;3.11;56.67;102354.13;4947885;28;120078;-86
2021/12/21 02:11:06;;;;;;;14.15;8.52;;;;;;;2.90;56.92;102324.69;4946712;28;121938;-84
2021/12/21 02:13:35;;;;;;;13.82;9.23;;;;;;;3.25;57.17;102369.88;4916709;28;120827;-88
2021/12/21 02:16:01;;;;;;;15.18;8.18;;;;;;;3.25;57.22;102367.16;4919943;28;121909;-90
2021/12/21 02:21:28;;;;;;;;;;;;;;;3.19;57.26;102368.59;4927657;28;122186;-89
2021/12/21 02:23:58;;;;;;;16.48;8.65;;;;;;;2.81;57.03;102315.97;4937682;28;123003;-90
2021/12/21 02:31:50;;;;;;;18.38;8.90;;;;;;;3.13;57.05;102361.91;4954292;28;119316;-89
2021/12/21 02:34:18;;;;;;;18.40;9.40;;;;;;;3.12;56.78;102361.13;4934484;28;121011;-89
2021/12/21 02:36:46;;;;;;;17.52;8.10;;;;;;;3.05;56.84;102355.53;4929101;28;123456;-88
2021/12/21 02:39:13;;;;;;;12.68;8.55;;;;;;;2.96;56.72;102344.94;4932459;28;119588;-90
2021/12/21 02:41:39;;;;;;;15.75;8.65;;;;;;;3.01;56.56;102346.56;4946643;28;120343;-85
2021/12/21 02:44:06;;;;;;;19.38;9.38;;;;;;;3.03;56.49;102364.03;4915231;28;121107;-82
2021/12/21 02:46:32;;;;;;;21.92;9.45;;;;;;;3.05;56.70;102358.25;4968282;28;119372;-86
2021/12/21 02:48:58;;;;;;;16.77;8.60;;;;;;;2.92;56.88;102344.09;4929482;28;123426;-81
2021/12/21 02:51:24;;;;;;;17.50;9.05;;;;;;;2.94;57.17;102341.78;4947655;28;119630;-84
2021/12/21 02:53:50;;;;;;;15.75;8.93;;;;;;;3.02;57.28;102348.13;4963649;28;119370;-81
2021/12/21 02:56:16;;;;;;;14.30;8.57;;;;;;;3.02;56.82;102348.91;4948505;28;123646;-84
2021/12/21 02:58:42;;;;;;;18.95;8.73;;;;;;;2.76;56.96;102310.84;4949635;28;119491;-84
2021/12/21 03:01:10;;;;;;;18.67;9.43;;;;;;;2.75;57.30;102306.56;4932183;28;121985;-87
2021/12/21 03:03:36;;;;;;;13.23;8.02;;;;;;;3.05;57.08;102345.47;4950595;28;119885;-87
2021/12/21 03:06:08;;;;;;;14.32;8.65;;;;;;;2.72;57.21;102285.59;4951152;28;119625;-85
2021/12/21 03:08:48;;;;;;;14.88;8.35;;;;;;;3.06;56.75;102338.91;4953496;28;120024;-82
2021/12/21 03:16:27;;;;;;;14.63;8.70;;;;;;;2.50;56.94;102261.91;4949848;28;121963;-90
2021/12/21 03:18:52;;;;;;;14.35;8.52;;;;;;;2.92;56.76;102333.22;4948569;28;119451;-85
2021/12/21 03:21:18;;;;;;;14.30;8.60;;;;;;;2.87;56.20;102333.53;4933308;28;120846;-87
2021/12/21 03:23:43;;;;;;;15.88;8.68;;;;;;;2.79;56.79;102329.09;4949128;28;123123;-87
2021/12/21 03:26:09;;;;;;;18.75;8.65;;;;;;;2.66;56.80;102301.34;4948650;28;119617;-88
2021/12/21 03:28:35;;;;;;;16.33;8.38;;;;;;;2.71;56.47;102313.84;4936032;28;122082;-87
2021/12/21 03:31:00;;;;;;;15.02;8.55;;;;;;;2.38;56.81;102260.94;4935742;28;119285;-89
2021/12/21 03:33:26;;;;;;;16.00;8.57;;;;;;;2.81;56.36;102324.09;4946928;28;122153;-83
2021/12/21 03:35:51;;;;;;;16.25;8.90;;;;;;;2.75;56.82;102311.97;4947561;28;123508;-88
2021/12/21 03:38:17;;;;;;;13.00;8.10;;;;;;;2.46;56.42;102268.06;4949681;28;119418;-86
2021/12/21 03:40:44;;;;;;;15.77;8.90;;;;;;;2.35;56.66;102245.38;4948043;28;121862;-88
2021/12/21 03:43:10;;;;;;;17.92;8.93;;;;;;;2.60;56.52;102285.72;4940920;28;122966;-89
2021/12/21 03:45:43;;;;;;;15.23;8.60;;;;;;;2.79;56.72;102307.41;4952401;28;119752;-86
2021/12/21 03:48:13;;;;;;;15.80;8.88;;;;;;;2.77;56.43;102315.09;4947671;28;121817;-87
2021/12/21 03:50:39;;;;;;;14.45;8.98;;;;;;;2.56;56.63;102287.59;4934979;28;123223;-88
2021/12/21 03:53:04;;;;;;;14.88;9.18;;;;;;;2.43;56.60;102262.56;4963024;28;119649;-85
2021/12/21 03:55:30;;;;;;;14.27;8.40;;;;;;;2.81;57.21;102315.19;4948349;28;122743;-84
2021/12/21 03:57:55;;;;;;;14.50;8.55;;;;;;;2.57;56.85;102272.88;4963029;28;120430;-87
2021/12/21 04:00:22;;;;;;;15.15;8.75;;;;;;;2.66;56.66;102303.28;4944977;28;121144;-89
2021/12/21 04:02:50;;;;;;;14.45;8.05;;;;;;;2.49;55.95;102282.03;4949174;28;120521;-87
2021/12/21 04:05:16;;;;;;;14.30;8.57;;;;;;;2.72;56.22;102307.28;4931151;28;119671;-90
2021/12/21 04:07:42;;;;;;;14.77;8.60;;;;;;;2.62;56.82;102295.09;4965691;28;120110;-90
2021/12/21 04:10:08;;;;;;;15.35;8.77;;;;;;;2.71;56.49;102308.41;4947821;28;122843;-86
2021/12/21 04:12:34;;;;;;;14.07;8.73;;;;;;;2.44;56.83;102270.34;4935454;28;119662;-87
2021/12/21 04:15:02;;;;;;;14.35;8.57;;;;;;;2.60;56.87;102289.25;4952638;28;122121;-81
2021/12/21 04:17:30;;;;;;;14.40;9.23;;;;;;;2.60;56.28;102294.66;4948146;28;119412;-88
2021/12/21 04:19:55;;;;;;;11.90;7.97;;;;;;;2.54;56.53;102279.81;4963032;28;120776;-85
2021/12/21 04:22:33;;;;;;;17.42;9.10;;;;;;;2.65;56.09;102299.00;4947925;28;121139;-85
2021/12/21 04:24:58;;;;;;;19.40;8.70;;;;;;;2.56;56.28;102293.00;4965618;28;119582;-88
2021/12/21 04:27:24;;;;;;;12.80;8.02;;;;;;;2.69;56.18;102316.91;4931663;28;122477;-88
2021/12/21 04:29:49;;;;;;;12.32;8.00;;;;;;;2.67;56.24;102307.56;4931951;28;121854;-83
2021/12/21 04:32:15;;;;;;;15.15;9.05;;;;;;;2.65;56.85;102299.78;4948703;28;119612;-91
2021/12/21 04:34:42;;;;;;;18.00;9.68;;;;;;;2.53;56.92;102285.59;4933531;28;121862;-89
2021/12/21 04:37:09;;;;;;;14.15;9.73;;;;;;;2.64;56.37;102292.03;4946507;28;119510;-87
2021/12/21 04:39:42;;;;;;;16.80;8.95;;;;;;;2.61;56.65;102284.59;4964157;28;122744;-88
2021/12/21 04:42:08;;;;;;;16.97;9.10;;;;;;;2.54;56.59;102273.59;4944041;28;120517;-85
2021/12/21 04:44:33;;;;;;;14.48;8.48;;;;;;;2.70;55.94;102307.63;4944430;28;119361;-85
2021/12/21 04:47:00;;;;;;;16.98;8.82;;;;;;;2.43;56.02;102265.28;4930119;28;120880;-86
2021/12/21 04:49:25;;;;;;;14.02;8.85;;;;;;;2.43;56.24;102274.19;4948575;28;121275;-86
2021/12/21 04:51:51;;;;;;;14.88;9.20;;;;;;;2.15;56.24;102228.34;4936993;28;119539;-90
2021/12/21 04:54:17;;;;;;;15.93;9.40;;;;;;;2.50;56.18;102275.47;4934980;28;120484;-89
2021/12/21 04:56:42;;;;;;;16.85;8.95;;;;;;;2.34;56.23;102257.34;4973107;28;119320;-86
2021/12/21 04:59:08;;;;;;;16.33;9.80;;;;;;;2.56;56.35;102287.59;4919380;28;121568;-91
2021/12/21 05:01:34;;;;;;;15.85;9.40;;;;;;;2.53;56.78;102285.59;4951529;28;123062;-90
2021/12/21 05:04:02;;;;;;;16.77;9.02;;;;;;;2.66;56.51;102297.88;4955160;28;119231;-87
2021/12/21 05:06:27;;;;;;;15.20;9.55;;;;;;;2.54;56.35;102281.72;4967231;28;119352;-85
2021/12/21 05:09:05;;;;;;;15.48;9.60;;;;;;;2.43;56.44;102262.56;4951349;28;119320;-87
2021/12/21 05:11:34;;;;;;;19.00;10.32;;;;;;;2.26;56.46;102239.38;4953059;28;119195;-89
2021/12/21 05:14:01;;;;;;;14.65;9.07;;;;;;;2.62;55.82;102289.66;4957178;28;119572;-86
2021/12/21 05:16:26;;;;;;;17.33;9.35;;;;;;;2.40;56.24;102264.06;4952666;28;120247;-86
2021/12/21 05:18:52;;;;;;;15.38;8.90;;;;;;;2.33;55.73;102255.78;4957350;28;119384;-88
2021/12/21 05:21:17;;;;;;;16.55;10.18;;;;;;;2.52;56.10;102289.44;4967837;28;120193;-85
2021/12/21 05:23:43;;;;;;;16.98;10.30;;;;;;;2.27;55.91;102248.28;4951851;28;119162;-90
2021/12/21 05:26:09;;;;;;;18.25;9.75;;;;;;;2.35;56.41;102258.13;4952989;28;122748;-90
2021/12/21 05:28:34;;;;;;;15.52;9.98;;;;;;;2.54;56.15;102279.03;4952770;28;121811;-88
2021/12/21 05:31:00;;;;;;;20.02;10.27;;;;;;;2.58;56.29;102296.91;4967684;28;119516;-83
2021/12/21 05:33:29;;;;;;;17.45;10.20;;;;;;;2.61;56.23;102304.34;4936040;28;120966;-88
2021/12/21 05:35:55;;;;;;;17.83;10.40;;;;;;;2.20;56.83;102229.19;4949460;28;121668;-88
2021/12/21 05:38:29;;;;;;;23.85;11.07;;;;;;;2.46;56.42;102283.53;4972002;28;118986;-90
2021/12/21 05:40:57;;;;;;;16.02;10.02;;;;;;;2.51;56.20;102298.69;4933918;28;119414;-90
2021/12/21 05:43:22;;;;;;;19.48;10.55;;;;;;;2.39;56.89;102267.91;4936621;28;119350;-86
2021/12/21 05:45:48;;;;;;;18.08;11.60;;;;;;;2.26;56.84;102263.75;4947637;28;121373;-89
2021/12/21 05:48:13;;;;;;;16.58;10.40;;;;;;;2.62;56.33;102294.31;4933820;28;123291;-86
2021/12/21 05:50:39;;;;;;;16.75;10.27;;;;;;;2.34;56.55;102254.63;4951132;28;119320;-86
2021/12/21 05:53:04;;;;;;;17.27;10.75;;;;;;;2.15;56.21;102227.56;4919586;28;122496;-89
2021/12/21 05:55:30;;;;;;;17.85;10.60;;;;;;;2.66;56.45;102292.44;4949638;28;122660;-91
2021/12/21 05:57:56;;;;;;;19.10;10.20;;;;;;;2.66;55.84;102293.22;4968390;28;119334;-88
2021/12/21 06:00:30;;;;;;;21.38;11.07;;;;;;;2.61;56.02;102290.03;4955440;28;120932;-82
2021/12/21 06:02:56;;;;;;;;;;;;;;;2.62;56.26;102297.81;4967877;28;119291;-88
2021/12/21 06:05:23;;;;;;;17.33;10.02;;;;;;;2.46;55.50;102275.41;4950881;28;121696;-89
2021/12/21 06:07:52;;;;;;;20.55;10.80;;;;;;;2.25;55.97;102253.28;4960028;28;120304;-89
2021/12/21 06:10:25;;;;;;;21.55;11.63;;;;;;;2.56;56.29;102293.00;4952535;28;120211;-85
2021/12/21 06:26:14;;;;;;;17.02;10.27;;;;;;;2.42;57.06;102253.66;4967477;28;119608;-88
2021/12/21 06:28:45;;;;;;;17.88;11.45;;;;;;;2.61;57.32;102277.25;4948784;28;120809;-89
2021/12/21 06:31:11;;;;;;;16.17;10.60;;;;;;;2.76;56.82;102292.66;4965295;28;119667;-87
2021/12/21 06:33:37;;;;;;;15.68;10.63;;;;;;;2.51;56.81;102263.50;4934011;28;122186;-90
2021/12/21 06:36:03;;;;;;;18.38;11.07;;;;;;;2.54;57.15;102251.94;4965936;28;120272;-88
2021/12/21 06:38:29;;;;;;;24.40;12.77;;;;;;;2.46;56.67;102246.38;4967263;28;119561;-87
2021/12/21 06:40:55;;;;;;;20.55;12.40;;;;;;;2.56;57.28;102260.50;4949265;28;121090;-86
2021/12/21 06:43:21;;;;;;;22.42;13.23;;;;;;;2.37;57.21;102224.16;4967164;28;120307;-86
2021/12/21 06:46:13;;;;;;;22.10;12.70;;;;;;;2.94;57.15;102300.34;4955844;28;119304;-89
2021/12/21 06:51:27;;;;;;;23.58;14.38;;;;;;;2.55;57.29;102221.78;4950540;28;120303;-85
2021/12/21 06:53:56;;;;;;;21.05;13.40;;;;;;;2.55;57.09;102237.25;4954000;28;120927;-90
2021/12/21 06:56:23;;;;;;;21.02;12.15;;;;;;;2.99;57.66;102290.00;4966726;28;121175;-85
2021/12/21 06:58:49;;;;;;;21.30;11.95;;;;;;;2.92;57.38;102273.59;4933939;28;119562;-91
2021/12/21 07:01:15;;;;;;;23.80;12.57;;;;;;;2.86;57.46;102266.91;4946498;28;119478;-89
2021/12/21 07:03:42;;;;;;;22.80;11.65;;;;;;;2.81;57.05;102256.34;4949732;28;123217;-89
2021/12/21 07:06:08;;;;;;;19.77;11.02;;;;;;;3.05;56.73;102288.53;4949958;28;120386;-88
2021/12/21 07:08:47;;;;;;;22.15;13.43;;;;;;;2.66;56.85;102219.28;4970879;28;119590;-83
2021/12/21 07:11:25;;;;;;;21.60;12.90;;;;;;;2.95;57.14;102278.31;4949113;28;119453;-89
2021/12/21 07:19:22;;;;;;;19.70;12.82;;;;;;;2.80;56.74;102249.34;4966593;28;119484;-90
2021/12/21 07:21:48;;;;;;;19.95;12.32;;;;;;;2.84;57.46;102261.06;4949024;28;121968;-89
2021/12/21 07:24:13;;;;;;;19.27;11.38;;;;;;;2.97;57.08;102273.31;4950633;28;120164;-87
2021/12/21 07:26:39;;;;;;;20.02;11.98;;;;;;;2.76;56.54;102243.09;4953349;28;119878;-89
2021/12/21 07:29:05;;;;;;;21.27;12.15;;;;;;;2.69;56.49;102235.63;4947194;28;122066;-91
2021/12/21 07:31:30;;;;;;;20.33;11.55;;;;;;;2.77;56.79;102250.06;4951898;28;120106;-86
2021/12/21 07:33:58;;;;;;;17.85;11.57;;;;;;;2.83;56.80;102250.56;4932119;28;122252;-86
2021/12/21 07:36:25;;;;;;;19.40;11.30;;;;;;;2.41;56.87;102192.50;4965582;28;120395;-88
2021/12/21 07:38:51;;;;;;;22.48;11.38;;;;;;;2.89;57.13;102263.47;4948979;28;119939;-91
2021/12/21 07:41:17;;;;;;;19.42;12.00;;;;;;;2.86;56.80;102258.78;4964690;28;119989;-89
2021/12/21 07:43:42;;;;;;;18.80;12.30;;;;;;;2.69;57.09;102232.13;4933407;28;121863;-90
2021/12/21 07:46:08;;;;;;;19.88;12.20;;;;;;;2.65;57.26;102215.00;4933435;28;120604;-89
2021/12/21 07:48:34;;;;;;;21.10;12.25;;;;;;;2.71;56.95;102232.53;4915720;28;120877;-81
2021/12/21 07:51:00;;;;;;;21.17;13.07;;;;;;;2.57;57.07;102205.16;4952808;28;119697;-87
2021/12/21 07:53:26;;;;;;;23.25;12.70;;;;;;;2.73;57.23;102227.53;4949795;28;121997;-89
2021/12/21 07:55:57;;;;;;;23.25;12.77;;;;;;;2.67;57.13;102224.34;4948157;28;122768;-88
2021/12/21 07:58:29;;;;;;;22.67;12.98;;;;;;;2.77;57.27;102233.81;4934044;28;119405;-89
2021/12/21 08:00:56;;;;;;;16.88;11.93;;;;;;;2.75;57.60;102225.25;4933652;28;121870;-87
2021/12/21 08:03:22;;;;;;;18.15;12.38;;;;;;;2.75;57.37;102225.25;4928058;28;121577;-90
2021/12/21 08:05:50;;;;;;;18.73;12.18;;;;;;;2.97;56.59;102265.16;4932465;28;119512;-89
2021/12/21 08:08:20;;;;;;;20.85;12.95;;;;;;;2.87;57.22;102265.75;4918067;28;122331;-90
2021/12/21 08:10:52;;;;;;;21.65;13.27;;;;;;;2.67;56.58;102234.41;4948705;28;123217;-90
2021/12/21 08:13:18;;;;;;;18.52;11.70;;;;;;;2.70;56.71;102241.81;4953088;28;119593;-90
2021/12/21 08:15:45;;;;;;;23.40;12.98;;;;;;;2.84;56.97;102261.06;4935136;28;123017;-91
2021/12/21 08:18:10;;;;;;;23.73;13.38;;;;;;;2.71;57.09;102246.09;4931679;28;119801;-91
2021/12/21 08:20:36;;;;;;;23.83;12.98;;;;;;;2.55;56.95;102213.66;4931907;28;122427;-89
2021/12/21 08:23:05;;;;;;;24.40;13.55;;;;;;;2.79;56.68;102242.38;4949024;28;119701;-91
2021/12/21 08:25:35;;;;;;;21.17;12.77;;;;;;;2.62;57.35;102213.03;4933815;28;119818;-85
2021/12/21 08:28:02;;;;;;;18.33;11.95;;;;;;;2.73;57.66;102225.63;4949253;28;120968;-89
2021/12/21 08:30:34;;;;;;;22.95;12.90;;;;;;;2.68;57.58;102234.03;4965829;28;119711;-88
2021/12/21 08:32:59;;;;;;;22.63;12.80;;;;;;;2.71;57.82;102230.63;4931783;28;121222;-86
2021/12/21 08:35:26;;;;;;;20.08;12.65;;;;;;;3.04;57.87;102272.63;4921014;28;120808;-92
2021/12/21 08:37:53;;;;;;;19.45;12.25;;;;;;;2.76;57.80;102226.81;4949530;28;119454;-90
2021/12/21 08:40:20;;;;;;;19.77;13.15;;;;;;;2.89;58.20;102241.00;4949528;28;122769;-89
2021/12/21 08:42:48;;;;;;;18.35;12.48;;;;;;;3.12;57.78;102279.00;4914427;28;122784;-86
2021/12/21 08:45:14;;;;;;;20.63;12.10;;;;;;;2.89;57.92;102243.72;4931272;28;119838;-89
2021/12/21 08:47:39;;;;;;;19.67;12.07;;;;;;;3.18;58.20;102288.41;4962179;28;120034;-90
2021/12/21 08:50:08;;;;;;;19.60;12.05;;;;;;;3.00;58.26;102258.25;4946733;28;122949;-87
2021/12/21 08:52:37;;;;;;;21.27;13.45;;;;;;;2.87;58.12;102232.47;4931778;28;119350;-87
2021/12/21 08:55:05;;;;;;;21.35;13.75;;;;;;;2.92;58.05;102235.66;4948674;28;121899;-86
2021/12/21 08:57:30;;;;;;;24.30;13.43;;;;;;;3.20;58.16;102259.00;4935802;28;123334;-84
2021/12/21 08:59:56;;;;;;;23.55;13.23;;;;;;;3.30;57.60;102282.78;4963275;28;121940;-84
2021/12/21 09:02:22;;;;;;;21.10;11.98;;;;;;;3.08;58.03;102243.69;4947355;28;123129;-85
2021/12/21 09:04:48;;;;;;;18.92;11.82;;;;;;;2.96;58.43;102219.44;4945766;28;120392;-87
2021/12/21 09:07:13;;;;;;;20.88;12.88;;;;;;;3.34;57.89;102284.44;4947623;28;120806;-86
2021/12/21 09:09:39;;;;;;;21.65;12.35;;;;;;;3.29;58.06;102259.53;4946860;28;120361;-85
2021/12/21 09:12:05;;;;;;;22.40;14.57;;;;;;;3.43;57.69;102283.41;4910416;28;121284;-90
2021/12/21 09:14:32;;;;;;;25.27;14.93;;;;;;;3.35;57.57;102266.22;4964025;28;119995;-91
2021/12/21 09:16:59;;;;;;;22.27;14.63;;;;;;;3.51;57.65;102285.09;4926485;28;120701;-85
2021/12/21 09:19:25;;;;;;;22.90;15.63;;;;;;;3.39;58.13;102264.38;4951648;28;119754;-90
2021/12/21 09:21:51;;;;;;;23.20;14.23;;;;;;;3.61;58.38;102290.69;4938275;28;123775;-89
2021/12/21 09:24:17;;;;;;;20.85;12.57;;;;;;;3.66;58.65;102287.69;4945689;28;121015;-89
2021/12/21 09:26:42;;;;;;;21.65;12.23;;;;;;;3.30;58.24;102228.53;4929517;28;122471;-89
2021/12/21 09:29:08;;;;;;;18.55;12.50;;;;;;;3.70;58.40;102280.38;4955790;28;123110;-84
2021/12/21 09:31:34;;;;;;;20.98;12.80;;;;;;;3.79;58.51;102293.72;4944022;28;119872;-88
2021/12/21 09:33:59;;;;;;;19.98;12.50;;;;;;;3.73;59.12;102273.44;4947632;28;120556;-85
2021/12/21 09:36:26;;;;;;;18.65;11.95;;;;;;;3.89;59.39;102292.28;4976962;28;120917;-88
2021/12/21 09:38:56;;;;;;;21.88;12.10;;;;;;;3.85;59.62;102269.75;4956457;28;121928;-89
2021/12/21 09:41:22;;;;;;;19.92;11.30;;;;;;;3.79;59.75;102255.69;4980041;28;120625;-90
2021/12/21 09:43:47;;;;;;;17.52;11.18;;;;;;;4.06;59.88;102278.19;4943216;28;119772;-85
2021/12/21 09:46:15;;;;;;;15.93;10.60;;;;;;;4.16;60.02;102280.28;4958904;28;119779;-86
2021/12/21 09:48:40;;;;;;;17.10;10.20;;;;;;;4.18;60.15;102277.97;4955665;28;120324;-81
2021/12/21 09:51:06;;;;;;;16.75;11.00;;;;;;;4.39;60.15;102291.06;4958884;28;119533;-86
2021/12/21 09:53:33;;;;;;;20.38;11.20;;;;;;;4.28;60.43;102263.75;4959345;28;121335;-83
2021/12/21 09:56:00;;;;;;;18.10;11.23;;;;;;;4.46;60.10;102276.78;4957713;28;121875;-87
2021/12/21 09:58:26;;;;;;;19.30;10.77;;;;;;;4.28;60.25;102239.31;4961298;28;119884;-87
2021/12/21 10:00:52;;;;;;;20.08;10.63;;;;;;;4.52;60.40;102269.88;4928775;28;122252;-88
2021/12/21 10:03:17;;;;;;;16.88;10.50;;;;;;;4.32;60.16;102226.56;4960905;28;119699;-82
2021/12/21 10:05:44;;;;;;;17.83;10.25;;;;;;;4.80;60.48;102286.53;4961486;28;122526;-88
2021/12/21 10:08:13;;;;;;;17.15;10.65;;;;;;;4.86;60.13;102287.75;4922877;28;121058;-81
2021/12/21 10:10:47;;;;;;;17.27;9.82;;;;;;;4.80;60.25;102274.88;4915841;28;121430;-81
2021/12/21 10:13:22;;;;;;;15.05;9.38;;;;;;;4.92;60.36;102280.81;4933287;28;121349;-88
2021/12/21 10:15:54;;;;;;;21.85;9.48;;;;;;;5.04;59.97;102281.72;4949905;28;123458;-85
2021/12/21 10:18:24;;;;;;;13.27;8.75;;;;;;;5.11;60.29;102289.94;4947475;28;120158;-87
2021/12/21 10:20:50;;;;;;;15.75;7.75;;;;;;;5.13;60.27;102282.19;4930235;28;121218;-84
2021/12/21 10:23:31;;;;;;;17.33;9.05;;;;;;;5.00;60.15;102251.00;4959975;28;122018;-85
2021/12/21 10:26:03;;;;;;;17.13;9.00;;;;;;;5.07;59.48;102251.84;4940722;28;122283;-83
2021/12/21 10:28:30;;;;;;;16.35;9.10;;;;;;;5.30;59.95;102286.25;4962311;28;120337;-87
2021/12/21 10:30:57;;;;;;;14.75;9.13;;;;;;;5.34;60.04;102289.78;4955939;28;120594;-89
2021/12/21 10:33:25;;;;;;;12.65;8.00;;;;;;;5.35;59.82;102281.25;4960887;28;121084;-90
2021/12/21 10:35:54;;;;;;;14.95;7.60;;;;;;;5.03;59.98;102214.88;4974970;28;122243;-88
2021/12/21 10:38:47;;;;;;;11.82;7.60;;;;;;;5.43;60.02;102268.47;4957155;28;119610;-80
2021/12/21 10:41:20;;;;;;;16.90;8.63;;;;;;;5.46;60.08;102254.13;4941141;28;122133;-84
2021/12/21 10:44:18;;;;;;;11.15;8.02;;;;;;;5.58;59.69;102258.50;4923957;28;123071;-86
2021/12/21 10:46:53;;;;;;;14.90;8.57;;;;;;;5.70;59.80;102274.53;4943390;28;119794;-88
2021/12/21 10:49:25;;;;;;;16.88;8.68;;;;;;;5.69;59.99;102257.44;4970985;28;119912;-87
2021/12/21 10:51:51;;;;;;;14.85;9.05;;;;;;;5.79;59.32;102270.31;4967027;28;119841;-89
2021/12/21 10:54:26;;;;;;;15.48;9.45;;;;;;;5.79;59.82;102258.66;4916851;28;121619;-89
2021/12/21 10:57:00;;;;;;;14.73;8.13;;;;;;;5.80;60.23;102262.94;4937805;28;122792;-89
2021/12/21 10:59:37;;;;;;;16.35;8.77;;;;;;;5.78;59.61;102251.66;4972968;28;120789;-85
2021/12/21 11:02:10;;;;;;;17.00;9.43;;;;;;;5.94;59.79;102276.69;4936569;28;122228;-85
2021/12/21 11:04:38;;;;;;;16.75;8.52;;;;;;;5.89;59.68;102265.31;4940322;28;123235;-81
2021/12/21 11:07:25;;;;;;;17.42;7.95;;;;;;;6.01;59.86;102273.22;4974670;28;119679;-86
2021/12/21 11:10:09;;;;;;;15.00;8.13;;;;;;;6.05;59.24;102276.75;4929804;28;122803;-85
2021/12/21 11:12:55;;;;;;;15.70;8.27;;;;;;;6.10;59.56;102279.09;4928271;28;120934;-85
2021/12/21 11:15:31;;;;;;;13.73;7.35;;;;;;;6.02;59.31;102251.06;4959186;28;122105;-85
2021/12/21 11:18:10;;;;;;;16.63;7.88;;;;;;;6.20;59.30;102272.16;4927578;28;122557;-87
2021/12/21 11:20:37;;;;;;;13.40;7.60;;;;;;;6.25;59.17;102269.09;4939180;28;120021;-81
2021/12/21 11:23:05;;;;;;;13.95;8.02;;;;;;;6.16;59.08;102258.53;4953694;28;121432;-83
2021/12/21 11:25:31;;;;;;;13.35;7.78;;;;;;;6.23;59.10;102244.94;4955413;28;120067;-89
2021/12/21 11:28:00;;;;;;;15.13;8.48;;;;;;;6.39;59.57;102271.88;4926762;28;119849;-83
2021/12/21 11:30:25;;;;;;;13.50;7.75;;;;;;;6.36;59.88;102253.53;4928839;28;122066;-89
2021/12/21 11:32:53;;;;;;;14.77;7.80;;;;;;;6.37;59.70;102247.72;4956304;28;122270;-82
2021/12/21 11:37:54;;;;;;;15.82;8.30;;;;;;;6.50;59.37;102242.72;4957348;28;123671;-84
2021/12/21 11:40:24;;;;;;;13.25;8.48;;;;;;;6.53;60.05;102235.72;4927508;28;119954;-87
2021/12/21 11:42:52;;;;;;;13.93;7.15;;;;;;;6.81;59.71;102262.28;4955996;28;122177;-85
2021/12/21 11:45:41;;;;;;;11.38;6.93;;;;;;;6.89;59.26;102255.69;4926346;28;123238;-89
2021/12/21 11:48:09;;;;;;;11.88;6.95;;;;;;;6.98;58.93;102247.91;4937958;28;120362;-85
2021/12/21 11:50:38;;;;;;;11.48;6.85;;;;;;;7.04;58.72;102249.09;4945049;28;122334;-88
2021/12/21 11:53:07;;;;;;;8.88;6.18;;;;;;;7.10;58.09;102242.09;4912542;28;123226;-90
2021/12/21 11:55:36;;;;;;;11.48;6.68;;;;;;;7.16;58.69;102237.81;4944076;28;121477;-88
2021/12/21 11:58:17;;;;;;;10.88;6.47;;;;;;;7.21;57.94;102234.69;4954895;28;122224;-85
2021/12/21 12:00:57;;;;;;;8.90;6.13;;;;;;;7.19;57.42;102228.84;4927080;28;120209;-85
2021/12/21 12:03:25;;;;;;;9.50;5.63;;;;;;;7.24;57.53;102231.19;4973613;28;121161;-83
2021/12/21 12:05:51;;;;;;;11.13;5.43;;;;;;;7.29;57.51;102230.78;4952830;28;122897;-87
2021/12/21 12:08:16;;;;;;;13.32;6.05;;;;;;;7.21;56.82;102212.84;4959378;28;119551;-88
2021/12/21 12:10:47;;;;;;;11.70;5.78;;;;;;;7.29;56.94;102222.59;4923517;28;121624;-89
2021/12/21 12:13:26;;;;;;;12.77;5.63;;;;;;;7.31;57.55;102220.25;4944692;28;123367;-82
2021/12/21 12:16:01;;;;;;;9.68;6.20;;;;;;;7.12;57.16;102193.38;4959675;28;120917;-89
2021/12/21 12:18:40;;;;;;;12.30;5.95;;;;;;;7.26;56.96;102201.53;4953596;28;120619;-88
2021/12/21 12:21:19;;;;;;;11.77;5.70;;;;;;;7.36;57.60;102197.25;4957135;28;120213;-86
2021/12/21 12:23:55;;;;;;;10.52;5.88;;;;;;;7.36;57.08;102194.53;4958320;28;121755;-85
2021/12/21 12:26:31;;;;;;;10.63;5.65;;;;;;;7.30;57.38;102172.28;4915708;28;123100;-82
2021/12/21 12:29:09;;;;;;;7.18;4.65;;;;;;;7.26;57.24;102171.50;4947216;28;121154;-90
2021/12/21 12:31:38;;;;;;;13.23;5.35;;;;;;;7.38;57.47;102192.97;4925801;28;121089;-88
2021/12/21 12:34:04;;;;;;;11.13;5.75;;;;;;;7.43;57.95;102182.81;4955278;28;124607;-87